KMDZ

Details ICAO KMDZ
Name TAYLOR CO
Region United States
Timezone America/Chicago (UTC-6.0)
Plans Departing 1
Arriving 0
Stats Elevation 1,470 ft / 448 m (AMSL)
Location 45.100744° -90.303655°
Runways 2
Magnetic Variation 2.268° W
Sunrise 2017-12-10 13:30:32 UTC / 2017-12-10 07:30:32 Local
Sunset 2017-12-10 22:20:39 UTC / 2017-12-10 16:20:39 Local
Advertisement - Login to hide

Runways

ID Width Length Bearing (true) Bearing (mag) Surface Threshold Offset Overrun Length
09 75 ft / 23 m 4,988 ft / 1,520 m 89.32° 91.59° Asphalt 0 ft / 0 m 0 ft / 0 m
16 75 ft / 23 m 4,102 ft / 1,250 m 155.83° 158.10° Asphalt 0 ft / 0 m 0 ft / 0 m
27 75 ft / 23 m 4,988 ft / 1,520 m 269.33° 271.60° Asphalt 0 ft / 0 m 0 ft / 0 m
34 75 ft / 23 m 4,102 ft / 1,250 m 335.84° 338.11° Asphalt 0 ft / 0 m 0 ft / 0 m

Map

Weather


0- 5 10 15 20 25 30 35+ Temperature / ° C

Clouds and Precipitation
Forecast for 2017-12-11 00:00 UTC. Updated an hour ago

Ground ~20,000 ft ~40,000 ft Winds

METAR

KMDZ 110035Z AUTO 35005KT 10SM OVC021 M07/M10 A3000 RMK AO2 T10681105

TAF

Not found

Frequencies

Recorded 119.02 MHz AWOS 3
Unicom 122.80 MHz CTAF/UNICOM
Warning: Do not use this data for real-world aviation or navigation. No guarantee of current accuracy is given.